Time;durP1;ratioP1;P1;durP2;ratioP2;P2;SDS_P1;SDS_P2;PMS_P1;PMS_P2;Temp;Humidity;BMP_temperature;BMP_pressure;BME280_temperature;BME280_humidity;BME280_pressure;Samples;Min_cycle;Max_cycle;Signal;HPM_P1;HPM_P2
2022/01/12 00:00:17;;;;;;;;;63.00;46.25;;;;;2.70;71.17;102996.84;4959711;28;46562;-52
2022/01/12 00:02:43;;;;;;;;;59.50;46.75;;;;;2.74;70.71;103001.09;4955409;28;45581;-51
2022/01/12 00:05:09;;;;;;;;;57.25;47.00;;;;;2.66;71.07;102998.03;4972362;28;45403;-50
2022/01/12 00:07:34;;;;;;;;;63.25;52.00;;;;;2.67;71.74;102994.34;4955409;28;45488;-50
2022/01/12 00:10:00;;;;;;;;;53.25;44.00;;;;;2.68;71.38;102985.25;4953357;28;46284;-48
2022/01/12 00:12:26;;;;;;;;;71.25;50.75;;;;;2.77;71.40;102990.03;4954880;28;45794;-51
2022/01/12 00:14:52;;;;;;;;;71.50;52.00;;;;;2.80;71.40;102995.25;4956325;28;45470;-50
2022/01/12 00:17:18;;;;;;;;;72.50;50.00;;;;;2.43;70.67;102925.44;4957117;28;45768;-48
2022/01/12 00:19:43;;;;;;;;;62.50;50.75;;;;;2.81;71.19;102988.84;4939372;28;45768;-52
2022/01/12 00:22:09;;;;;;;;;64.00;45.25;;;;;2.78;70.44;102974.63;4939953;28;45400;-49
2022/01/12 00:35:33;;;;;;;;;65.50;50.25;;;;;2.55;71.03;103006.88;4961714;28;45357;-47
2022/01/12 00:37:59;;;;;;;;;57.00;49.25;;;;;2.47;71.39;103009.25;4958560;28;45325;-48
2022/01/12 00:40:24;;;;;;;;;64.25;46.00;;;;;2.44;71.67;103004.88;4959493;28;45309;-49
2022/01/12 00:42:50;;;;;;;;;69.50;51.50;;;;;2.29;71.86;102980.56;4975912;28;45325;-49
2022/01/12 00:45:17;;;;;;;;;58.75;47.25;;;;;2.42;71.94;102999.56;4976084;28;45344;-49
2022/01/12 00:47:43;;;;;;;;;58.75;46.75;;;;;2.45;72.23;103012.03;4976802;28;45454;-49
2022/01/12 00:50:09;;;;;;;;;63.00;46.25;;;;;2.46;71.98;103007.50;4974912;28;45359;-49
2022/01/12 00:52:34;;;;;;;;;64.50;49.75;;;;;2.51;71.49;103011.63;4948038;28;45561;-48
2022/01/12 00:55:00;;;;;;;;;63.75;48.50;;;;;2.44;71.74;103015.72;4956545;28;45433;-47
2022/01/12 00:57:25;;;;;;;;;70.75;50.50;;;;;2.36;72.17;103007.25;4957296;28;45403;-49
2022/01/12 00:59:51;;;;;;;;;61.00;48.00;;;;;2.34;72.11;103012.75;4956413;28;46451;-49
2022/01/12 01:02:16;;;;;;;;;65.75;49.00;;;;;2.44;72.06;103032.88;4956560;28;45287;-47
2022/01/12 01:04:42;;;;;;;;;69.00;50.25;;;;;2.31;72.03;103010.28;4955768;28;45247;-49
2022/01/12 01:07:08;;;;;;;;;67.50;52.50;;;;;2.46;72.49;103035.50;4955401;28;45171;-47
2022/01/12 01:09:36;;;;;;;;;63.00;49.50;;;;;2.22;71.96;103002.72;4956589;28;45339;-48
2022/01/12 01:12:02;;;;;;;;;64.25;49.00;;;;;2.40;72.14;103042.19;4939118;28;45523;-48
2022/01/12 01:14:45;;;;;;;;;64.50;52.00;;;;;2.41;72.34;103040.34;4955398;28;45512;-50
2022/01/12 01:25:33;;;;;;;;;69.00;50.00;;;;;2.63;71.92;103066.91;4958186;28;45520;-51
2022/01/12 01:27:59;;;;;;;;;63.25;49.50;;;;;2.30;71.66;103011.25;4970747;28;45359;-49
2022/01/12 01:30:25;;;;;;;;;65.25;50.25;;;;;2.64;71.89;103071.34;4975690;28;45367;-49
2022/01/12 01:32:50;;;;;;;;;62.75;46.25;;;;;2.64;71.92;103068.66;4976030;28;45296;-49
2022/01/12 01:35:18;;;;;;;;;60.25;49.00;;;;;2.63;71.89;103060.59;4975620;28;45300;-50
2022/01/12 01:37:43;;;;;;;;;70.00;48.25;;;;;2.69;72.25;103076.47;4974930;28;45401;-49
2022/01/12 01:40:09;;;;;;;;;60.50;46.25;;;;;2.61;71.84;103074.25;4975858;28;45307;-47
2022/01/12 01:53:22;;;;;;;;;65.25;47.50;;;;;1.98;71.80;102955.47;4975412;28;45711;-49
2022/01/12 01:55:49;;;;;;;;;63.00;45.75;;;;;2.61;71.74;103059.84;4975697;28;45478;-49
2022/01/12 01:58:15;;;;;;;;;70.00;51.75;;;;;2.53;72.13;103044.97;4974134;28;45552;-48
2022/01/12 02:00:40;;;;;;;;;66.00;53.50;;;;;2.76;72.32;103075.09;4974998;28;46934;-52
2022/01/12 02:03:06;;;;;;;;;67.00;50.75;;;;;2.77;72.07;103087.66;4975346;28;45351;-49
2022/01/12 02:05:31;;;;;;;;;68.25;50.75;;;;;2.70;72.00;103075.50;4975441;28;45435;-47
2022/01/12 02:07:58;;;;;;;;;65.50;51.50;;;;;2.77;72.04;103086.81;4958090;28;45369;-48
2022/01/12 02:10:23;;;;;;;;;60.75;48.25;;;;;2.65;71.55;103067.66;4973839;28;46860;-47
2022/01/12 02:12:49;;;;;;;;;69.75;55.25;;;;;2.46;72.07;103042.75;4975112;28;45360;-48
2022/01/12 02:15:21;;;;;;;;;57.75;47.50;;;;;2.52;72.45;103064.03;4975435;28;45436;-47
2022/01/12 02:18:02;;;;;;;;;67.75;50.25;;;;;1.83;72.77;102954.66;4975240;28;45349;-47
2022/01/12 02:40:00;;;;;;;;;65.00;48.50;;;;;2.45;72.88;103014.75;4914216;28;46443;-49
2022/01/12 02:42:27;;;;;;;;;64.00;47.25;;;;;2.74;72.66;103052.63;4968860;28;46264;-48
2022/01/12 02:55:49;;;;;;;;;71.00;49.00;;;;;2.54;72.97;103025.00;4959443;28;45409;-51
2022/01/12 02:58:14;;;;;;;;;71.50;53.25;;;;;2.49;72.87;103023.56;4974632;28;45372;-47
2022/01/12 03:01:16;;;;;;;;;67.00;50.00;;;;;2.46;73.30;103030.06;4975062;28;45649;-49
2022/01/12 03:03:29;;;;;;;;;61.00;49.00;;;;;2.45;72.81;103028.31;4979831;28;45625;-49
2022/01/12 03:05:58;;;;;;;;;68.50;49.75;;;;;2.40;72.65;103039.47;4978807;28;45487;-48
2022/01/12 03:08:25;;;;;;;;;61.00;46.25;;;;;2.19;73.31;103000.25;4978078;28;45408;-47
2022/01/12 03:10:51;;;;;;;;;54.25;45.50;;;;;2.17;73.11;102998.50;4997937;28;45557;-47
2022/01/12 03:13:16;;;;;;;;;58.25;46.50;;;;;2.39;73.35;103045.88;4993210;28;45454;-49
2022/01/12 03:15:42;;;;;;;;;62.25;46.25;;;;;2.28;73.24;103043.88;4990962;28;45406;-48
2022/01/12 03:18:08;;;;;;;;;65.00;50.50;;;;;2.08;73.45;103012.63;4979687;28;45371;-47
2022/01/12 03:20:33;;;;;;;;;58.50;43.50;;;;;2.45;73.33;103066.25;4997599;28;45595;-48
2022/01/12 03:22:59;;;;;;;;;61.75;46.25;;;;;2.50;73.54;103074.97;4979787;28;47540;-48
2022/01/12 03:25:25;;;;;;;;;62.25;46.50;;;;;2.56;73.45;103073.72;4997122;28;45413;-52
2022/01/12 03:27:56;;;;;;;;;65.25;50.75;;;;;2.47;72.97;103058.03;4992506;28;45415;-48
2022/01/12 03:30:21;;;;;;;;;62.50;50.00;;;;;2.38;73.16;103040.53;4976641;28;45458;-50
2022/01/12 03:33:01;;;;;;;;;63.25;46.25;;;;;2.58;73.31;103074.47;4977488;28;46133;-49
2022/01/12 03:35:47;;;;;;;;;56.75;47.50;;;;;2.57;73.01;103061.91;4977248;28;45482;-51
2022/01/12 03:38:20;;;;;;;;;58.75;44.50;;;;;2.30;72.68;103025.66;4977319;28;45261;-48
2022/01/12 03:40:49;;;;;;;;;62.00;50.25;;;;;2.62;73.12;103072.44;4961331;28;45599;-47
2022/01/12 03:43:16;;;;;;;;;54.25;46.75;;;;;2.61;72.59;103070.69;4960475;28;46852;-50
2022/01/12 03:45:42;;;;;;;;;69.00;52.75;;;;;2.63;73.23;103071.44;4975838;28;45388;-48
2022/01/12 03:48:07;;;;;;;;;54.75;45.75;;;;;2.67;73.10;103070.28;4959770;28;45411;-48
2022/01/12 03:50:34;;;;;;;;;65.00;46.00;;;;;2.68;73.19;103067.44;4977459;28;45383;-48
2022/01/12 03:52:59;;;;;;;;;55.50;43.25;;;;;2.72;72.68;103068.13;4959793;28;45406;-49
2022/01/12 03:55:25;;;;;;;;;59.50;45.00;;;;;2.76;72.99;103082.34;4976666;28;45478;-47
2022/01/12 03:57:50;;;;;;;;;62.75;45.25;;;;;2.77;73.25;103087.66;4959802;28;45413;-48
2022/01/12 04:00:16;;;;;;;;;64.75;48.00;;;;;2.80;72.83;103092.91;4977186;28;45365;-46
2022/01/12 04:02:41;;;;;;;;;59.50;46.25;;;;;2.76;72.65;103096.78;4976533;28;45327;-47
2022/01/12 04:05:12;;;;;;;;;67.50;48.75;;;;;2.73;72.91;103102.44;4976904;28;45689;-48
2022/01/12 04:10:42;;;;;;;;;57.50;44.00;;;;;2.78;72.96;103100.25;4935825;28;45623;-51
2022/01/12 04:13:08;;;;;;;;;57.75;45.25;;;;;2.78;72.95;103121.09;4934553;28;46468;-48
2022/01/12 04:15:33;;;;;;;;;62.75;51.25;;;;;2.76;72.59;103115.78;4953756;28;45924;-48
2022/01/12 04:17:59;;;;;;;;;71.50;47.25;;;;;2.77;72.98;103120.22;4977343;28;45790;-49
2022/01/12 04:20:24;;;;;;;;;60.25;43.00;;;;;2.80;73.12;103130.00;4977075;28;45376;-50
2022/01/12 04:25:34;;;;;;;;;66.00;51.50;;;;;2.81;73.24;103138.03;4976609;28;45457;-52
2022/01/12 04:27:59;;;;;;;;;61.25;46.25;;;;;2.73;73.03;103118.69;4976758;28;45421;-48
2022/01/12 04:30:25;;;;;;;;;63.75;47.75;;;;;2.82;72.97;103136.19;4977336;28;45944;-47
2022/01/12 04:32:50;;;;;;;;;66.50;50.25;;;;;2.82;73.05;103139.78;4951220;28;45488;-50
2022/01/12 04:35:17;;;;;;;;;54.75;49.00;;;;;2.79;72.68;103134.56;4975625;28;45415;-47
2022/01/12 04:37:43;;;;;;;;;65.25;46.25;;;;;2.67;72.96;103119.09;4976526;28;45444;-51
2022/01/12 04:40:09;;;;;;;;;62.25;46.50;;;;;2.84;72.78;103154.09;4976456;28;45653;-48
2022/01/12 04:42:35;;;;;;;;;59.25;45.75;;;;;2.80;73.19;103147.16;4976265;28;45584;-49
2022/01/12 04:45:17;;;;;;;;;66.00;52.50;;;;;2.87;72.91;103152.19;4976262;28;45317;-49
2022/01/12 04:47:57;;;;;;;;;60.75;47.25;;;;;2.84;72.63;103151.38;4958729;28;45412;-48
2022/01/12 04:50:23;;;;;;;;;58.25;46.50;;;;;2.87;72.77;103154.88;4977080;28;45435;-50
2022/01/12 04:52:50;;;;;;;;;62.00;46.00;;;;;2.89;72.68;103152.94;4957939;28;45776;-47
2022/01/12 04:55:15;;;;;;;;;66.00;51.00;;;;;2.90;73.01;103151.97;4958960;28;45440;-47
2022/01/12 04:57:41;;;;;;;;;69.50;51.50;;;;;2.88;72.74;103134.94;4976433;28;45359;-50
2022/01/12 05:00:18;;;;;;;;;64.50;48.75;;;;;2.70;73.31;103118.88;4955427;28;45420;-48
2022/01/12 05:08:36;;;;;;;;;66.50;51.75;;;;;2.87;73.04;103163.88;4960698;28;45347;-48
2022/01/12 05:13:48;;;;;;;;;68.00;50.75;;;;;2.71;72.98;103142.31;4969425;28;45397;-47
2022/01/12 05:16:13;;;;;;;;;68.50;52.25;;;;;2.75;73.32;103143.00;4971655;28;45893;-51
2022/01/12 05:18:40;;;;;;;;;64.25;49.75;;;;;2.89;73.43;103171.94;4956924;28;45672;-50
2022/01/12 05:21:05;;;;;;;;;69.00;53.50;;;;;2.86;73.23;103175.72;4956437;28;45515;-50
2022/01/12 05:23:31;;;;;;;;;63.25;48.00;;;;;2.89;73.17;103169.22;4956318;28;46421;-55
2022/01/12 05:25:57;;;;;;;;;51.50;37.25;;;;;2.62;72.75;103130.22;4956412;28;45522;-49
2022/01/12 05:28:23;;;;;;;;;77.25;52.00;;;;;2.88;73.31;103167.47;4956510;28;45365;-48
2022/01/12 05:30:49;;;;;;;;;58.25;46.50;;;;;2.73;73.12;103128.66;4956486;28;45436;-49
2022/01/12 05:33:15;;;;;;;;;70.75;54.50;;;;;2.91;73.46;103150.97;4954471;28;46634;-48
2022/01/12 05:35:42;;;;;;;;;67.75;51.25;;;;;2.84;73.29;103143.25;4956753;28;45666;-52
2022/01/12 05:38:08;;;;;;;;;65.50;49.00;;;;;2.84;72.75;103132.41;4955769;28;45385;-48
2022/01/12 05:40:34;;;;;;;;;61.25;45.75;;;;;2.73;72.74;103117.81;4955275;28;45472;-50
2022/01/12 05:43:01;;;;;;;;;53.00;43.50;;;;;2.84;73.39;103143.25;4955870;28;45755;-46
2022/01/12 05:45:27;;;;;;;;;61.80;45.00;;;;;2.84;73.09;103145.13;4956045;28;45514;-50
2022/01/12 05:50:19;;;;;;;;;56.25;43.00;;;;;2.86;73.05;103156.72;4939322;28;45392;-48
2022/01/12 05:52:44;;;;;;;;;69.75;48.00;;;;;2.63;73.15;103102.16;4955948;28;46726;-49
2022/01/12 05:55:10;;;;;;;;;59.00;46.25;;;;;2.85;73.44;103144.97;4955882;28;45363;-47
2022/01/12 05:57:36;;;;;;;;;67.00;51.00;;;;;2.82;73.26;103149.75;4956364;28;45325;-50
2022/01/12 06:00:04;;;;;;;;;65.50;51.00;;;;;2.80;73.09;103147.16;4967404;28;45333;-48
2022/01/12 06:02:30;;;;;;;;;67.00;49.00;;;;;2.17;73.15;103049.09;4957787;28;45957;-47
2022/01/12 06:04:56;;;;;;;;;63.50;47.25;;;;;2.82;73.63;103176.88;4957556;28;45441;-50
2022/01/12 06:07:21;;;;;;;;;63.25;49.50;;;;;2.82;73.46;103175.03;4957765;28;45586;-51
2022/01/12 06:09:47;;;;;;;;;61.00;47.25;;;;;2.77;73.36;103177.19;4975722;28;45477;-55
2022/01/12 06:12:13;;;;;;;;;71.25;49.50;;;;;2.79;73.35;103168.94;4975036;28;45579;-53
2022/01/12 06:14:38;;;;;;;;;66.00;49.75;;;;;2.81;73.34;103167.00;4975487;28;45373;-49
2022/01/12 06:17:04;;;;;;;;;63.50;50.75;;;;;2.78;73.05;103165.34;4957057;28;45286;-50
2022/01/12 06:19:29;;;;;;;;;71.00;49.75;;;;;2.78;73.60;103159.94;4975350;28;45313;-49
2022/01/12 06:21:55;;;;;;;;;62.00;46.50;;;;;2.80;73.56;103171.56;4970218;28;49772;-49
2022/01/12 06:24:21;;;;;;;;;58.00;50.50;;;;;2.60;72.98;103131.31;4974973;28;45520;-47
2022/01/12 06:26:47;;;;;;;;;65.00;48.25;;;;;2.80;73.49;103166.16;4971118;28;45304;-50
2022/01/12 06:31:47;;;;;;;;;60.50;46.25;;;;;2.57;73.62;103127.81;4974283;28;45384;-47
2022/01/12 06:34:13;;;;;;;;;62.00;50.00;;;;;2.80;73.27;103166.16;4973770;28;45405;-47
2022/01/12 06:36:39;;;;;;;;;54.00;45.50;;;;;2.81;73.60;103154.31;4958801;28;45693;-49
2022/01/12 06:39:09;;;;;;;;;63.25;47.25;;;;;2.64;73.59;103136.44;4978402;28;45689;-48
2022/01/12 06:41:38;;;;;;;;;65.50;50.00;;;;;2.81;73.74;103167.00;4978164;28;45511;-46
2022/01/12 06:44:04;;;;;;;;;58.20;45.60;;;;;2.81;73.55;103165.16;4978024;28;45379;-50
2022/01/12 06:46:31;;;;;;;;;75.25;55.50;;;;;2.82;73.92;103166.03;4978161;28;45412;-46
2022/01/12 06:48:57;;;;;;;;;68.00;48.75;;;;;2.83;73.88;103168.63;4977232;28;45266;-48
2022/01/12 06:51:23;;;;;;;;;49.50;42.50;;;;;2.86;73.70;103178.41;4978131;28;45399;-47
2022/01/12 06:53:49;;;;;;;;;51.75;44.75;;;;;2.87;73.71;103168.44;4944520;28;45417;-51
2022/01/12 06:56:17;;;;;;;;;66.75;50.00;;;;;2.86;73.97;103173.00;4977156;28;45365;-49
2022/01/12 06:58:43;;;;;;;;;55.75;46.75;;;;;2.87;73.46;103179.31;4978571;28;46080;-49
2022/01/12 07:01:08;;;;;;;;;56.50;44.25;;;;;2.85;73.74;103188.38;4982137;28;45871;-50
2022/01/12 07:03:34;;;;;;;;;59.00;46.50;;;;;2.83;73.73;103179.50;4978988;28;45573;-51
2022/01/12 07:06:00;;;;;;;;;64.75;45.25;;;;;2.87;73.71;103182.88;4960966;28;45346;-49
2022/01/12 07:08:25;;;;;;;;;62.25;49.00;;;;;2.72;73.43;103157.63;4978634;28;45359;-49
2022/01/12 07:10:51;;;;;;;;;67.50;47.25;;;;;2.84;73.47;103186.66;4976842;28;46682;-49
2022/01/12 07:13:16;;;;;;;;;63.75;50.75;;;;;2.88;73.65;103183.75;4978269;28;45513;-52
2022/01/12 07:15:42;;;;;;;;;52.75;43.75;;;;;2.91;73.74;103180.81;4977850;28;45414;-48
2022/01/12 07:18:08;;;;;;;;;61.25;47.25;;;;;2.90;73.76;103171.84;4978296;28;45314;-52
2022/01/12 07:20:34;;;;;;;;;62.00;50.00;;;;;2.75;73.56;103135.72;4977776;28;45941;-48
2022/01/12 07:22:59;;;;;;;;;61.75;46.00;;;;;2.92;73.69;103160.84;4976566;28;45408;-48
2022/01/12 07:25:25;;;;;;;;;70.75;50.75;;;;;2.90;73.61;103163.69;4978116;28;45277;-48
2022/01/12 07:27:51;;;;;;;;;51.00;43.50;;;;;2.82;73.75;103156.06;4977877;28;45636;-52
2022/01/12 07:30:16;;;;;;;;;51.25;43.50;;;;;2.75;73.81;103159.25;4977767;28;45721;-49
2022/01/12 07:32:42;;;;;;;;;59.75;43.25;;;;;2.71;73.92;103167.63;4977315;28;45327;-49
2022/01/12 07:35:08;;;;;;;;;57.50;41.50;;;;;2.51;74.01;103147.19;4977938;28;45480;-50
2022/01/12 07:37:33;;;;;;;;;57.50;43.50;;;;;2.55;73.91;103169.56;4960484;28;45405;-49
2022/01/12 07:39:59;;;;;;;;;48.00;34.75;;;;;2.33;73.91;103129.44;4977310;28;45607;-48
2022/01/12 07:42:24;;;;;;;;;56.00;45.00;;;;;2.70;73.63;103192.13;4959821;28;45368;-51
2022/01/12 07:44:58;;;;;;;;;62.50;47.00;;;;;2.72;74.11;103192.88;4977535;28;45479;-49
2022/01/12 07:47:24;;;;;;;;;50.00;43.00;;;;;2.64;73.63;103184.38;4960373;28;45472;-50
2022/01/12 07:49:49;;;;;;;;;66.50;52.00;;;;;2.63;74.91;103177.22;4977133;28;45823;-48
2022/01/12 07:52:15;;;;;;;;;80.00;62.67;;;;;2.87;75.56;103217.28;4960066;28;45774;-50
2022/01/12 07:54:40;;;;;;;;;63.75;43.50;;;;;2.78;74.18;103206.03;4946889;28;45388;-51
2022/01/12 07:57:06;;;;;;;;;50.75;42.25;;;;;2.70;74.14;103183.97;4968434;28;45348;-49
2022/01/12 07:59:31;;;;;;;;;57.50;44.50;;;;;2.87;73.52;103217.28;4976872;28;45523;-49
2022/01/12 08:01:57;;;;;;;;;58.75;49.50;;;;;2.91;74.06;103224.22;4959173;28;45353;-50
2022/01/12 08:04:22;;;;;;;;;51.75;43.25;;;;;2.69;74.01;103193.09;4976937;28;45383;-48
2022/01/12 08:06:48;;;;;;;;;54.25;44.75;;;;;2.92;74.24;103226.84;4977346;28;45289;-49
2022/01/12 08:09:13;;;;;;;;;56.25;44.50;;;;;2.85;73.72;103215.50;4976649;28;46862;-54
2022/01/12 08:11:39;;;;;;;;;59.50;44.50;;;;;2.51;73.95;103166.19;4959608;28;45338;-50
2022/01/12 08:14:04;;;;;;;;;58.25;48.50;;;;;2.91;73.76;103235.97;4976375;28;45423;-51
2022/01/12 08:16:30;;;;;;;;;63.00;49.75;;;;;2.84;74.12;103232.78;4975943;28;45544;-49
2022/01/12 08:18:56;;;;;;;;;66.50;49.00;;;;;2.92;73.88;103251.28;4976622;28;46821;-50
2022/01/12 08:21:22;;;;;;;;;59.80;44.80;;;;;3.01;73.67;103259.78;4976824;28;45205;-52
2022/01/12 08:23:47;;;;;;;;;61.25;48.50;;;;;3.06;73.74;103261.25;4976813;28;45345;-50
2022/01/12 08:26:13;;;;;;;;;67.50;45.00;;;;;3.08;73.64;103274.69;4976982;28;45596;-46
2022/01/12 08:28:38;;;;;;;;;66.25;50.00;;;;;3.09;73.60;103271.88;4976743;28;45360;-49
2022/01/12 08:31:04;;;;;;;;;66.50;49.25;;;;;3.18;73.29;103277.66;4976251;28;45407;-49
2022/01/12 08:33:30;;;;;;;;;69.50;51.50;;;;;3.22;74.28;103282.81;4976677;28;45771;-48
2022/01/12 08:35:55;;;;;;;;;72.50;52.00;;;;;3.27;73.12;103287.94;4977182;28;45363;-51
2022/01/12 08:38:21;;;;;;;;;70.75;55.00;;;;;3.09;73.40;103254.72;4959388;28;47044;-50
2022/01/12 08:40:46;;;;;;;;;69.25;53.00;;;;;3.06;73.26;103244.97;4976496;28;45205;-48
2022/01/12 08:43:13;;;;;;;;;72.00;55.00;;;;;3.07;72.62;103251.25;4976521;28;45371;-48
2022/01/12 08:45:39;;;;;;;;;64.75;52.00;;;;;3.30;73.32;103282.28;4976853;28;45616;-50
2022/01/12 08:48:04;;;;;;;;;69.25;55.75;;;;;3.43;73.05;103304.09;4976962;28;46372;-51
2022/01/12 08:50:30;;;;;;;;;78.25;57.25;;;;;3.45;73.25;103304.84;4976690;28;45376;-47
2022/01/12 08:52:56;;;;;;;;;82.00;59.75;;;;;3.44;72.96;103310.38;4977206;28;45193;-52
2022/01/12 08:55:22;;;;;;;;;78.50;57.75;;;;;3.41;72.77;103305.16;4976783;28;45783;-48
2022/01/12 08:57:48;;;;;;;;;70.50;55.00;;;;;3.40;72.97;103296.13;4971692;28;46092;-50
2022/01/12 09:00:14;;;;;;;;;68.50;54.00;;;;;3.35;72.82;103287.41;4992060;28;45534;-51
2022/01/12 09:02:40;;;;;;;;;75.75;57.00;;;;;3.51;72.75;103311.72;4994026;28;45504;-47
2022/01/12 09:05:11;;;;;;;;;77.25;57.00;;;;;3.49;72.47;103300.09;4995971;28;45528;-47
2022/01/12 09:07:37;;;;;;;;;78.00;57.50;;;;;3.57;72.40;103319.47;4996003;28;45568;-51
2022/01/12 09:10:04;;;;;;;;;85.75;60.50;;;;;3.59;72.63;103312.09;4994527;28;45359;-51
2022/01/12 09:12:29;;;;;;;;;80.25;59.75;;;;;3.67;72.09;103333.28;4996087;28;45318;-48
2022/01/12 09:14:55;;;;;;;;;77.50;56.50;;;;;3.69;72.06;103333.19;4996416;28;45482;-46
2022/01/12 09:17:22;;;;;;;;;83.75;62.50;;;;;3.39;71.85;103264.53;4996090;28;45569;-50
2022/01/12 09:19:51;;;;;;;;;72.00;56.00;;;;;3.70;71.60;103308.66;4978598;28;45463;-50
2022/01/12 09:22:17;;;;;;;;;81.75;60.25;;;;;3.88;71.61;103341.84;4978530;28;45448;-50
2022/01/12 09:24:44;;;;;;;;;77.50;58.75;;;;;3.87;71.60;103337.41;4977973;28;45474;-52
2022/01/12 09:27:10;;;;;;;;;76.00;59.00;;;;;4.00;71.30;103355.59;4978375;28;48384;-47
2022/01/12 09:29:35;;;;;;;;;79.25;58.25;;;;;4.06;71.30;103364.19;4974644;28;45722;-50
2022/01/12 09:32:01;;;;;;;;;86.25;60.25;;;;;4.03;70.98;103353.53;4976742;28;45287;-50
2022/01/12 09:34:26;;;;;;;;;76.25;56.75;;;;;4.11;71.14;103371.19;4975668;28;45396;-53
2022/01/12 09:36:52;;;;;;;;;77.25;56.75;;;;;4.16;71.34;103382.63;4976052;28;46561;-49
2022/01/12 09:39:17;;;;;;;;;81.25;60.25;;;;;4.18;70.87;103389.66;4976136;28;45436;-50
2022/01/12 09:41:43;;;;;;;;;74.75;56.25;;;;;4.19;71.11;103390.53;4975491;28;45398;-50
2022/01/12 09:44:08;;;;;;;;;77.25;58.75;;;;;3.89;70.76;103350.91;4976438;28;45763;-54
2022/01/12 09:46:34;;;;;;;;;70.00;55.25;;;;;4.17;70.57;103398.81;4972932;28;46744;-49
2022/01/12 09:49:01;;;;;;;;;82.25;60.25;;;;;4.20;69.93;103398.59;4970801;28;45425;-52
2022/01/12 09:51:26;;;;;;;;;79.25;60.00;;;;;4.22;70.94;103389.47;4958708;28;45232;-53
2022/01/12 09:53:52;;;;;;;;;74.75;56.75;;;;;3.95;70.32;103339.59;4958254;28;45715;-50
2022/01/12 09:56:20;;;;;;;;;79.50;60.75;;;;;3.82;69.97;103333.22;4959978;28;45852;-51
2022/01/12 09:58:46;;;;;;;;;71.50;58.25;;;;;4.32;70.67;103398.75;4969874;28;45855;-50
2022/01/12 10:01:12;;;;;;;;;77.00;58.75;;;;;4.19;70.00;103364.25;4930898;28;46026;-51
2022/01/12 10:03:37;;;;;;;;;83.50;62.75;;;;;3.91;70.88;103319.03;4970420;28;45839;-48
2022/01/12 10:06:15;;;;;;;;;77.75;56.25;;;;;4.43;69.66;103393.44;4970196;28;45575;-49
2022/01/12 10:08:41;;;;;;;;;86.00;57.00;;;;;4.44;69.69;103391.59;4969634;28;45380;-52
2022/01/12 10:11:12;;;;;;;;;86.00;61.50;;;;;4.50;70.29;103393.88;4969819;28;45464;-52
2022/01/12 10:13:40;;;;;;;;;83.25;57.25;;;;;4.39;69.52;103372.88;4974690;28;45918;-51
2022/01/12 10:16:26;;;;;;;;;74.75;55.50;;;;;4.57;69.75;103397.03;4973968;28;45907;-55
2022/01/12 10:18:59;;;;;;;;;73.75;54.00;;;;;4.61;69.44;103398.56;4973694;28;45299;-54
2022/01/12 10:21:35;;;;;;;;;75.50;57.50;;;;;4.49;69.24;103364.94;4955250;28;45393;-51
2022/01/12 10:24:06;;;;;;;;;69.75;55.00;;;;;4.73;69.37;103397.72;4972717;28;45462;-51
2022/01/12 10:26:43;;;;;;;;;77.00;60.00;;;;;4.78;69.22;103396.50;4973336;28;46594;-50
2022/01/12 10:29:28;;;;;;;;;80.00;58.00;;;;;4.68;68.67;103378.13;4973392;28;45804;-49
2022/01/12 10:32:02;;;;;;;;;80.25;60.25;;;;;4.75;68.18;103389.44;4955461;28;45520;-52
2022/01/12 10:34:30;;;;;;;;;78.75;57.25;;;;;4.84;69.23;103394.25;4972624;28;45652;-49
2022/01/12 10:36:56;;;;;;;;;75.75;58.25;;;;;4.82;68.16;103398.94;4973581;28;46032;-50
2022/01/12 10:39:24;;;;;;;;;77.25;56.25;;;;;4.82;69.28;103396.22;4958639;28;45803;-48
2022/01/12 10:41:57;;;;;;;;;74.00;58.00;;;;;4.81;69.41;103391.72;4975475;28;45499;-51
2022/01/12 10:44:24;;;;;;;;;74.75;58.00;;;;;4.77;68.49;103386.59;4955863;28;45509;-52
2022/01/12 10:46:50;;;;;;;;;69.25;55.50;;;;;4.61;68.23;103364.06;4973091;28;45931;-54
2022/01/12 10:49:21;;;;;;;;;73.50;55.50;;;;;4.79;69.01;103393.69;4957142;28;45457;-53
2022/01/12 10:51:54;;;;;;;;;81.50;59.75;;;;;4.77;68.02;103392.06;4974696;28;45573;-53
2022/01/12 10:54:20;;;;;;;;;80.25;58.00;;;;;4.87;68.46;103387.72;4974656;28;45961;-52
2022/01/12 10:56:45;;;;;;;;;83.50;60.00;;;;;4.87;68.27;103391.28;4973816;28;45439;-51
2022/01/12 10:59:16;;;;;;;;;78.75;60.50;;;;;4.71;68.58;103347.97;4972882;28;45756;-50
2022/01/12 11:01:41;;;;;;;;;77.50;59.25;;;;;4.94;68.88;103388.13;4902095;28;45602;-48
2022/01/12 11:04:07;;;;;;;;;74.50;55.25;;;;;4.87;68.01;103385.00;4967981;28;45559;-52
2022/01/12 11:06:34;;;;;;;;;82.00;59.75;;;;;4.86;67.40;103375.94;4955033;28;46915;-53
2022/01/12 11:09:00;;;;;;;;;74.50;58.25;;;;;4.99;68.25;103397.72;4939349;28;45611;-56
2022/01/12 11:11:26;;;;;;;;;72.25;56.25;;;;;5.03;67.78;103403.81;4954267;28;45527;-53
2022/01/12 11:13:52;;;;;;;;;62.25;47.75;;;;;5.07;67.98;103404.47;4973975;28;45312;-57
2022/01/12 11:16:23;;;;;;;;;64.00;50.25;;;;;4.87;68.00;103369.50;4972463;28;46128;-52
2022/01/12 11:18:49;;;;;;;;;58.25;45.00;;;;;5.08;67.43;103403.50;4973254;28;45458;-50
2022/01/12 11:21:21;;;;;;;;;74.50;57.75;;;;;5.01;66.99;103392.16;4939697;28;45516;-53
2022/01/12 11:23:46;;;;;;;;;70.50;56.25;;;;;5.13;67.89;103390.44;4972533;28;45455;-50
2022/01/12 11:26:19;;;;;;;;;83.75;60.50;;;;;5.08;66.88;103393.44;4955366;28;45699;-53
2022/01/12 11:28:46;;;;;;;;;77.25;59.25;;;;;5.10;67.71;103391.50;4973324;28;45892;-53
2022/01/12 11:31:15;;;;;;;;;77.50;60.25;;;;;5.13;67.44;103390.44;4955638;28;45404;-50
2022/01/12 11:33:42;;;;;;;;;79.00;58.25;;;;;5.15;67.19;103391.19;4971278;28;45369;-53
2022/01/12 11:36:12;;;;;;;;;74.00;58.00;;;;;5.20;67.74;103391.72;4973051;28;46689;-52
2022/01/12 11:38:37;;;;;;;;;80.00;59.50;;;;;5.21;68.00;103384.41;4973691;28;45538;-51
2022/01/12 11:41:22;;;;;;;;;75.50;57.25;;;;;5.20;67.83;103390.84;4973727;28;45455;-55
2022/01/12 11:44:00;;;;;;;;;78.75;60.00;;;;;5.22;67.29;103387.03;4972760;28;45867;-51
2022/01/12 11:46:27;;;;;;;;;83.75;60.25;;;;;4.97;66.88;103331.63;4965340;28;45865;-52
2022/01/12 11:48:54;;;;;;;;;66.00;55.00;;;;;5.21;67.87;103376.22;4936287;28;45392;-54
2022/01/12 11:51:39;;;;;;;;;77.50;58.75;;;;;5.26;67.62;103374.94;4969504;28;45529;-49
2022/01/12 11:54:12;;;;;;;;;78.50;58.25;;;;;5.26;67.32;103368.59;4972433;28;45623;-51
2022/01/12 11:56:51;;;;;;;;;79.75;56.75;;;;;5.31;67.20;103374.59;4955647;28;46167;-49
2022/01/12 11:59:17;;;;;;;;;76.00;59.75;;;;;5.05;67.22;103327.47;4971163;28;45602;-53
2022/01/12 12:01:50;;;;;;;;;76.75;57.75;;;;;5.09;67.04;103340.78;4946867;28;46055;-52
2022/01/12 12:04:30;;;;;;;;;72.75;58.00;;;;;5.17;67.23;103348.34;4968357;28;45816;-49
2022/01/12 12:07:24;;;;;;;;;72.50;56.25;;;;;5.29;67.85;103363.81;4972624;28;46367;-52
2022/01/12 12:09:59;;;;;;;;;77.00;59.50;;;;;5.34;67.37;103365.31;4970006;28;45416;-51
2022/01/12 12:12:29;;;;;;;;;68.00;52.50;;;;;5.35;67.54;103361.63;4970922;28;45496;-52
2022/01/12 12:14:57;;;;;;;;;76.50;58.75;;;;;5.40;66.70;103365.72;4939394;28;45485;-56
2022/01/12 12:17:24;;;;;;;;;77.25;59.00;;;;;5.16;67.15;103316.66;4955304;28;46312;-51
2022/01/12 12:19:52;;;;;;;;;73.00;54.25;;;;;5.34;65.65;103359.88;4971368;28;45917;-51
2022/01/12 12:22:21;;;;;;;;;72.00;56.00;;;;;5.38;66.73;103362.25;4971699;28;45498;-50
2022/01/12 12:24:52;;;;;;;;;76.00;53.25;;;;;5.28;66.52;103340.28;4972808;28;45433;-52
2022/01/12 12:27:20;;;;;;;;;83.75;57.25;;;;;5.19;65.83;103308.28;4974658;28;45985;-55
2022/01/12 12:29:46;;;;;;;;;71.75;52.75;;;;;5.35;66.17;103337.09;4955171;28;45792;-55
2022/01/12 12:32:13;;;;;;;;;76.25;55.75;;;;;5.44;66.25;103344.59;4955369;28;45868;-50
2022/01/12 12:34:41;;;;;;;;;76.50;57.50;;;;;5.48;66.06;103348.84;4971510;28;45477;-52
2022/01/12 12:37:08;;;;;;;;;84.25;55.50;;;;;5.44;65.60;103336.41;4972648;28;45809;-56